createdAt,value
2018-04-19T00:00:49.823Z,4.50
2018-04-19T00:01:49.822Z,4.00
2018-04-19T00:02:49.821Z,4.30
2018-04-19T00:03:49.818Z,4.30
2018-04-19T00:04:50.326Z,4.30
2018-04-19T00:05:50.319Z,4.00
2018-04-19T00:06:50.189Z,4.80
2018-04-19T00:07:50.320Z,4.10
2018-04-19T00:09:11.820Z,4.40
2018-04-19T00:09:50.819Z,4.70
2018-04-19T00:10:50.818Z,6.20
2018-04-19T00:11:50.837Z,4.50
2018-04-19T00:12:51.328Z,4.30
2018-04-19T00:13:51.322Z,4.10
2018-04-19T00:14:51.320Z,4.70
2018-04-19T00:15:51.319Z,4.40
2018-04-19T00:17:12.820Z,4.20
2018-04-19T00:17:52.751Z,4.40
2018-04-19T00:18:51.818Z,4.30
2018-04-19T00:19:51.824Z,4.30
2018-04-19T00:20:52.318Z,4.40
2018-04-19T00:21:52.320Z,4.40
2018-04-19T00:22:52.318Z,4.40
2018-04-19T00:23:52.321Z,4.20
2018-04-19T00:24:59.819Z,4.20
2018-04-19T00:25:52.818Z,4.70
2018-04-19T00:26:52.824Z,4.50
2018-04-19T00:27:52.796Z,4.30
2018-04-19T00:28:52.893Z,4.50
2018-04-19T00:29:53.318Z,4.50
2018-04-19T00:30:53.320Z,4.80
2018-04-19T00:31:53.317Z,4.10
2018-04-19T00:32:53.315Z,4.20
2018-04-19T00:33:53.817Z,4.60
2018-04-19T00:34:53.815Z,4.90
2018-04-19T00:35:53.817Z,4.40
2018-04-19T00:36:53.819Z,4.70
2018-04-19T00:37:54.317Z,4.50
2018-04-19T00:38:54.317Z,4.60
2018-04-19T00:39:54.317Z,4.70
2018-04-19T00:40:54.319Z,4.90
2018-04-19T00:41:54.818Z,4.60
2018-04-19T00:42:54.814Z,4.70
2018-04-19T00:43:54.822Z,4.50
2018-04-19T00:44:54.817Z,4.50
2018-04-19T00:45:55.317Z,4.30
2018-04-19T00:46:55.320Z,4.60
2018-04-19T00:47:55.324Z,4.50
2018-04-19T00:48:55.820Z,4.70
2018-04-19T00:49:55.817Z,4.60
2018-04-19T00:50:56.817Z,4.70
2018-04-19T00:51:55.817Z,4.40
2018-04-19T00:52:55.818Z,4.40
2018-04-19T00:53:56.316Z,4.60
2018-04-19T00:54:56.317Z,4.70
2018-04-19T00:55:56.164Z,4.30
2018-04-19T00:56:56.317Z,5.10
2018-04-19T00:57:56.823Z,5.10
2018-04-19T00:58:56.820Z,4.90
2018-04-19T00:59:57.814Z,5.00
2018-04-19T01:01:17.817Z,5.20
2018-04-19T01:01:57.317Z,4.90
2018-04-19T01:02:57.321Z,5.10
2018-04-19T01:03:57.337Z,4.80
2018-04-19T01:04:57.319Z,5.30
2018-04-19T01:05:57.817Z,5.00
2018-04-19T01:06:57.815Z,4.70
2018-04-19T01:07:57.825Z,4.70
2018-04-19T01:08:57.816Z,4.40
2018-04-19T01:09:58.316Z,5.50
2018-04-19T01:10:58.316Z,4.70
2018-04-19T01:11:58.319Z,5.40
2018-04-19T01:12:58.323Z,6.20
2018-04-19T01:13:58.819Z,5.00
2018-04-19T01:14:58.815Z,5.20
2018-04-19T01:15:58.816Z,4.90
2018-04-19T01:16:58.816Z,5.30
2018-04-19T01:17:59.793Z,5.00
2018-04-19T01:18:59.315Z,4.50
2018-04-19T01:19:59.315Z,5.10
2018-04-19T01:20:59.315Z,5.00
2018-04-19T01:21:59.815Z,5.10
2018-04-19T01:22:59.815Z,5.20
2018-04-19T01:23:59.820Z,4.90
2018-04-19T01:24:59.815Z,5.30
2018-04-19T01:26:00.315Z,5.70
2018-04-19T01:27:00.322Z,5.30
2018-04-19T01:28:00.346Z,5.60
2018-04-19T01:29:00.818Z,4.80
2018-04-19T01:30:00.816Z,5.20
2018-04-19T01:31:00.815Z,4.60
2018-04-19T01:32:00.825Z,4.70
2018-04-19T01:33:00.814Z,5.30
2018-04-19T01:34:01.315Z,4.90
2018-04-19T01:35:01.347Z,4.90
2018-04-19T01:36:01.315Z,5.30
2018-04-19T01:37:01.314Z,5.10
2018-04-19T01:38:02.816Z,4.70
2018-04-19T01:39:01.818Z,5.10
2018-04-19T01:40:01.816Z,5.30
2018-04-19T01:41:01.814Z,5.40
2018-04-19T01:42:02.314Z,4.90
2018-04-19T01:43:02.318Z,5.20
2018-04-19T01:44:02.318Z,5.20
2018-04-19T01:45:02.315Z,5.40
2018-04-19T01:46:02.813Z,5.10
2018-04-19T01:47:02.814Z,5.20
2018-04-19T01:48:02.824Z,6.10
2018-04-19T01:49:02.814Z,5.40
2018-04-19T01:50:03.318Z,5.20
2018-04-19T01:51:03.317Z,5.80
2018-04-19T01:52:03.314Z,5.20
2018-04-19T01:53:03.313Z,5.40
2018-04-19T01:54:03.821Z,5.10
2018-04-19T01:55:04.287Z,5.20
2018-04-19T01:56:03.813Z,5.40
2018-04-19T01:57:03.813Z,5.70
2018-04-19T01:58:04.313Z,5.70
2018-04-19T01:59:04.316Z,5.60
2018-04-19T02:00:11.319Z,5.60
2018-04-19T02:01:04.312Z,5.50
2018-04-19T02:02:04.814Z,5.90
2018-04-19T02:03:05.245Z,6.10
2018-04-19T02:04:04.840Z,5.40
2018-04-19T02:05:25.815Z,5.50
2018-04-19T02:06:05.315Z,6.10
2018-04-19T02:07:05.315Z,5.60
2018-04-19T02:08:05.320Z,5.50
2018-04-19T02:09:05.324Z,5.80
2018-04-19T02:10:26.813Z,6.10
2018-04-19T02:11:05.823Z,5.30
2018-04-19T02:12:05.811Z,5.30
2018-04-19T02:13:05.813Z,5.60
2018-04-19T02:14:06.319Z,6.10
2018-04-19T02:15:06.312Z,6.20
2018-04-19T02:16:06.312Z,5.90
2018-04-19T02:17:06.312Z,5.10
2018-04-19T02:18:06.812Z,6.20
2018-04-19T02:19:06.833Z,5.80
2018-04-19T02:20:06.813Z,5.70
2018-04-19T02:21:06.817Z,6.00
2018-04-19T02:22:07.313Z,6.20
2018-04-19T02:23:07.313Z,6.00
2018-04-19T02:24:07.311Z,5.60
2018-04-19T02:25:07.320Z,5.90
2018-04-19T02:26:07.810Z,6.10
2018-04-19T02:27:07.812Z,6.40
2018-04-19T02:28:07.824Z,5.90
2018-04-19T02:29:07.811Z,5.40
2018-04-19T02:30:08.311Z,5.60
2018-04-19T02:31:08.310Z,5.80
2018-04-19T02:32:08.314Z,5.60
2018-04-19T02:33:08.311Z,5.30
2018-04-19T02:34:09.824Z,6.00
2018-04-19T02:35:08.811Z,6.30
2018-04-19T02:36:08.814Z,5.90
2018-04-19T02:37:08.810Z,7.00
2018-04-19T02:38:09.311Z,6.20
2018-04-19T02:39:09.311Z,5.70
2018-04-19T02:40:09.310Z,6.70
2018-04-19T02:41:09.289Z,6.40
2018-04-19T02:42:09.814Z,6.10
2018-04-19T02:43:09.807Z,5.30
2018-04-19T02:44:09.825Z,6.80
2018-04-19T02:45:09.781Z,6.70
2018-04-19T02:46:09.877Z,6.90
2018-04-19T02:47:10.309Z,6.50
2018-04-19T02:48:10.319Z,6.10
2018-04-19T02:49:10.309Z,6.20
2018-04-19T02:50:10.309Z,6.70
2018-04-19T02:51:10.809Z,6.00
2018-04-19T02:52:10.531Z,6.30
2018-04-19T02:53:10.811Z,6.60
2018-04-19T02:54:10.809Z,7.00
2018-04-19T02:55:11.312Z,7.30
2018-04-19T02:56:11.311Z,6.40
2018-04-19T02:57:11.309Z,6.20
2018-04-19T02:58:11.313Z,6.40
2018-04-19T02:59:18.809Z,6.70
2018-04-19T03:00:11.810Z,6.30
2018-04-19T03:01:11.811Z,6.30
2018-04-19T03:02:11.809Z,7.10
2018-04-19T03:03:12.311Z,6.50
2018-04-19T03:04:12.310Z,9.80
2018-04-19T03:05:12.317Z,6.30
2018-04-19T03:06:12.312Z,6.60
2018-04-19T03:07:12.810Z,6.40
2018-04-19T03:08:12.812Z,6.20
2018-04-19T03:09:12.808Z,6.70
2018-04-19T03:10:33.811Z,6.70
2018-04-19T03:11:13.308Z,7.10
2018-04-19T03:12:13.307Z,6.50
2018-04-19T03:13:13.307Z,7.10
2018-04-19T03:14:13.296Z,6.60
2018-04-19T03:15:13.808Z,6.60
2018-04-19T03:16:13.560Z,6.80
2018-04-19T03:17:13.807Z,7.50
2018-04-19T03:18:13.806Z,6.80
2018-04-19T03:19:14.306Z,7.10
2018-04-19T03:20:14.309Z,6.60
2018-04-19T03:21:14.307Z,6.50
2018-04-19T03:22:14.345Z,6.50
2018-04-19T03:23:14.806Z,6.60
2018-04-19T03:24:14.809Z,7.20
2018-04-19T03:25:15.805Z,7.40
2018-04-19T03:26:14.807Z,6.70
2018-04-19T03:27:16.307Z,6.20
2018-04-19T03:28:15.310Z,6.10
2018-04-19T03:29:15.311Z,6.80
2018-04-19T03:30:15.313Z,6.80
2018-04-19T03:31:36.807Z,7.10
2018-04-19T03:32:15.806Z,6.80
2018-04-19T03:33:15.806Z,6.70
2018-04-19T03:34:15.807Z,7.60
2018-04-19T03:35:15.907Z,7.40
2018-04-19T03:36:16.309Z,7.30
2018-04-19T03:37:16.302Z,7.50
2018-04-19T03:38:16.305Z,7.50
2018-04-19T03:39:16.807Z,7.10
2018-04-19T03:40:16.807Z,7.20
2018-04-19T03:41:16.806Z,6.70
2018-04-19T03:42:16.805Z,7.20
2018-04-19T03:43:17.306Z,7.40
2018-04-19T03:44:17.312Z,7.70
2018-04-19T03:45:17.313Z,7.80
2018-04-19T03:46:17.306Z,7.30
2018-04-19T03:47:17.805Z,7.40
2018-04-19T03:48:17.810Z,7.10
2018-04-19T03:49:17.654Z,7.90
2018-04-19T03:50:17.805Z,7.50
2018-04-19T03:51:18.304Z,7.90
2018-04-19T03:52:18.304Z,7.70
2018-04-19T03:53:18.304Z,7.70
2018-04-19T03:54:18.304Z,7.60
2018-04-19T03:55:18.804Z,7.70
2018-04-19T03:56:18.804Z,7.60
2018-04-19T03:57:18.804Z,7.80
2018-04-19T03:58:18.806Z,7.40
2018-04-19T03:59:19.305Z,9.70
2018-04-19T04:00:19.304Z,9.60
2018-04-19T04:01:19.309Z,8.50
2018-04-19T04:02:22.307Z,8.50
2018-04-19T04:03:19.807Z,7.50
2018-04-19T04:04:19.801Z,8.20
2018-04-19T04:05:19.799Z,7.80
2018-04-19T04:06:19.803Z,8.00
2018-04-19T04:07:21.303Z,7.50
2018-04-19T04:08:20.306Z,8.30
2018-04-19T04:09:20.312Z,8.40
2018-04-19T04:10:20.308Z,8.50
2018-04-19T04:11:20.804Z,7.70
2018-04-19T04:12:20.809Z,8.00
2018-04-19T04:13:20.804Z,7.70
2018-04-19T04:14:20.803Z,7.70
2018-04-19T04:15:21.305Z,7.90
2018-04-19T04:16:21.298Z,8.50
2018-04-19T04:17:21.330Z,8.60
2018-04-19T04:18:22.303Z,8.50
2018-04-19T04:19:21.807Z,8.80
2018-04-19T04:20:21.803Z,7.90
2018-04-19T04:21:22.255Z,8.80
2018-04-19T04:22:22.801Z,8.40
2018-04-19T04:23:21.803Z,9.00
2018-04-19T04:24:22.301Z,8.40
2018-04-19T04:25:22.308Z,8.20
2018-04-19T04:26:22.306Z,8.50
2018-04-19T04:27:22.303Z,9.80
2018-04-19T04:28:22.398Z,10.80
2018-04-19T04:29:22.812Z,9.40
2018-04-19T04:30:22.805Z,9.30
2018-04-19T04:31:43.802Z,9.40
2018-04-19T04:32:23.306Z,9.30
2018-04-19T04:33:26.734Z,9.00
2018-04-19T04:34:23.385Z,9.70
2018-04-19T04:35:23.300Z,8.70
2018-04-19T04:36:23.305Z,8.70
2018-04-19T04:37:23.801Z,8.70
2018-04-19T04:38:23.801Z,9.60
2018-04-19T04:39:23.806Z,9.40
2018-04-19T04:40:23.810Z,9.40
2018-04-19T04:41:24.299Z,9.80
2018-04-19T04:42:24.301Z,9.40
2018-04-19T04:43:24.303Z,8.90
2018-04-19T04:44:24.301Z,8.90
2018-04-19T04:45:24.807Z,9.00
2018-04-19T04:46:24.802Z,9.10
2018-04-19T04:47:24.801Z,10.00
2018-04-19T04:48:45.798Z,9.30
2018-04-19T04:49:24.901Z,8.30
2018-04-19T04:50:25.301Z,9.40
2018-04-19T04:51:25.304Z,9.20
2018-04-19T04:52:25.301Z,9.20
2018-04-19T04:53:25.800Z,9.60
2018-04-19T04:54:26.796Z,9.90
2018-04-19T04:55:25.801Z,8.80
2018-04-19T04:56:25.816Z,9.00
2018-04-19T04:57:26.306Z,8.70
2018-04-19T04:58:26.299Z,8.50
2018-04-19T04:59:26.302Z,8.90
2018-04-19T05:00:47.301Z,8.50
2018-04-19T05:01:26.797Z,8.50
2018-04-19T05:02:26.527Z,8.70
2018-04-19T05:03:26.799Z,8.90
2018-04-19T05:04:26.769Z,8.70
2018-04-19T05:05:27.302Z,8.80
2018-04-19T05:06:27.300Z,8.90
2018-04-19T05:07:27.298Z,9.20
2018-04-19T05:08:27.313Z,8.60
2018-04-19T05:09:27.806Z,9.00
2018-04-19T05:10:27.800Z,9.40
2018-04-19T05:11:27.799Z,9.20
2018-04-19T05:12:27.798Z,9.10
2018-04-19T05:13:27.893Z,9.30
2018-04-19T05:17:37.537Z,8.80
2018-04-19T05:18:32.976Z,8.80
2018-04-19T05:19:31.543Z,8.70
2018-04-19T05:20:46.048Z,9.00
2018-04-19T05:21:52.248Z,9.10
2018-04-19T05:22:32.043Z,8.50
2018-04-19T05:23:53.046Z,9.10
2018-04-19T05:24:53.044Z,8.90
2018-04-19T05:25:46.543Z,8.80
2018-04-19T05:26:53.549Z,9.40
2018-04-19T05:27:32.544Z,9.10
2018-04-19T05:28:54.541Z,9.40
2018-04-19T05:31:05.281Z,9.30
2018-04-19T05:32:04.300Z,9.10
2018-04-19T05:33:04.299Z,9.90
2018-04-19T05:34:04.799Z,9.80
2018-04-19T05:35:04.799Z,10.00
2018-04-19T05:36:04.808Z,9.30
2018-04-19T05:37:04.798Z,9.60
2018-04-19T05:39:57.565Z,9.10
2018-04-19T05:40:36.571Z,9.60
2018-04-19T05:41:36.574Z,9.60
2018-04-19T05:42:43.069Z,9.60
2018-04-19T05:43:37.067Z,9.00
2018-04-19T05:44:38.500Z,9.40
2018-04-19T05:45:58.067Z,9.40
2018-04-19T05:46:59.065Z,8.30
2018-04-19T05:47:37.570Z,9.10
2018-04-19T05:48:58.566Z,8.60
2018-04-19T05:49:37.566Z,8.90
2018-04-19T05:50:37.570Z,9.80
2018-04-19T05:53:30.061Z,9.30
2018-04-19T05:56:02.331Z,8.90
2018-04-19T05:56:41.696Z,8.80
2018-04-19T05:59:26.949Z,8.60
2018-04-19T06:01:50.441Z,9.20
2018-04-19T06:02:58.450Z,9.20
2018-04-19T06:03:50.453Z,9.30
2018-04-19T06:04:45.951Z,9.20
2018-04-19T06:05:44.947Z,9.30
2018-04-19T06:06:44.948Z,9.00
2018-04-19T06:07:44.948Z,8.70
2018-04-19T06:08:45.448Z,8.90
2018-04-19T06:09:45.454Z,9.60
2018-04-19T06:10:45.451Z,10.20
2018-04-19T06:11:45.454Z,9.70
2018-04-19T06:13:06.947Z,10.40
2018-04-19T06:14:06.154Z,9.50
2018-04-19T06:14:45.253Z,10.10
2018-04-19T06:15:45.949Z,10.50
2018-04-19T06:16:45.948Z,9.50
2018-04-19T06:17:46.454Z,10.80
2018-04-19T06:18:46.448Z,9.90
2018-04-19T06:19:45.795Z,10.30
2018-04-19T06:20:45.893Z,9.80
2018-04-19T06:21:46.004Z,10.80
2018-04-19T06:22:48.946Z,9.80
2018-04-19T06:23:46.170Z,10.00
2018-04-19T06:25:07.956Z,10.20
2018-04-19T06:25:46.437Z,10.60
2018-04-19T06:26:46.544Z,10.50
2018-04-19T06:28:15.881Z,11.90
2018-04-19T06:29:08.446Z,12.20
2018-04-19T06:29:47.448Z,12.10
2018-04-19T06:30:47.953Z,11.60
2018-04-19T06:31:48.907Z,13.00
2018-04-19T06:32:47.957Z,11.30
2018-04-19T06:34:11.421Z,12.10
2018-04-19T06:34:47.947Z,12.00
2018-04-19T06:36:09.491Z,12.10
2018-04-19T06:36:47.685Z,13.30
2018-04-19T06:37:48.445Z,12.80
2018-04-19T06:38:48.446Z,13.30
2018-04-19T06:41:20.696Z,12.80
2018-04-19T06:42:20.727Z,12.70
2018-04-19T06:43:20.703Z,13.40
2018-04-19T06:44:22.635Z,13.70
2018-04-19T06:45:20.299Z,13.00
2018-04-19T06:46:27.135Z,13.10
2018-04-19T06:47:42.203Z,13.00
2018-04-19T06:48:21.206Z,11.90
2018-04-19T06:50:52.963Z,12.40
2018-04-19T06:51:52.971Z,13.00
2018-04-19T06:52:52.971Z,13.30
2018-04-19T06:53:53.499Z,12.80
2018-04-19T06:54:53.477Z,12.90
2018-04-19T06:55:53.470Z,12.50
2018-04-19T06:56:53.470Z,12.70
2018-04-19T06:57:54.017Z,12.80
2018-04-19T06:58:53.978Z,11.60
2018-04-19T06:59:53.251Z,12.60
2018-04-19T07:01:00.038Z,12.50
2018-04-19T07:03:26.559Z,12.50
2018-04-19T07:04:24.910Z,12.30
2018-04-19T07:05:45.989Z,12.40
2018-04-19T07:06:40.092Z,12.20
2018-04-19T07:07:46.180Z,11.90
2018-04-19T07:08:26.096Z,11.50
2018-04-19T07:09:25.445Z,12.20
2018-04-19T07:10:26.099Z,11.60
2018-04-19T07:11:46.698Z,11.00
2018-04-19T07:12:26.593Z,11.10
2018-04-19T07:13:26.592Z,11.40
2018-04-19T07:14:26.590Z,11.60
2018-04-19T07:16:57.654Z,11.50
2018-04-19T07:17:58.355Z,10.70
2018-04-19T07:18:58.349Z,10.70
2018-04-19T07:20:00.843Z,11.10
2018-04-19T07:20:58.069Z,11.30
2018-04-19T07:21:58.856Z,11.20
2018-04-19T07:22:58.329Z,10.70
2018-04-19T07:23:59.345Z,10.00
2018-04-19T07:24:58.570Z,10.80
2018-04-19T07:25:59.344Z,10.10
2018-04-19T07:26:58.883Z,10.50
2018-04-19T07:28:20.846Z,9.90
2018-04-19T07:28:59.845Z,10.10
2018-04-19T07:29:59.850Z,9.50
2018-04-19T07:30:59.848Z,9.40
2018-04-19T07:32:00.346Z,9.40
2018-04-19T07:33:00.369Z,9.60
2018-04-19T07:34:01.343Z,8.70
2018-04-19T07:35:00.345Z,9.10
2018-04-19T07:37:32.092Z,9.70
2018-04-19T07:40:26.086Z,8.00
2018-04-19T07:41:24.617Z,8.30
2018-04-19T07:42:03.093Z,8.90
2018-04-19T07:43:18.120Z,8.30
2018-04-19T07:44:24.344Z,8.40
2018-04-19T07:45:03.441Z,7.80
2018-04-19T07:46:24.524Z,8.00
2018-04-19T07:47:25.115Z,7.90
2018-04-19T07:48:29.049Z,8.00
2018-04-19T07:49:06.623Z,8.10
2018-04-19T07:51:36.150Z,7.70
2018-04-19T07:52:36.157Z,7.50
2018-04-19T07:53:37.090Z,7.60
2018-04-19T07:54:36.605Z,7.00
2018-04-19T07:55:41.130Z,7.60
2018-04-19T07:57:03.657Z,6.80
2018-04-19T07:57:36.657Z,7.30
2018-04-19T07:58:37.157Z,6.70
2018-04-19T07:59:37.158Z,6.20
2018-04-19T08:00:37.165Z,6.00
2018-04-19T08:01:36.651Z,6.40
2018-04-19T08:02:58.658Z,6.70
2018-04-19T08:05:09.044Z,6.70
2018-04-19T08:06:09.049Z,7.20
2018-04-19T08:07:09.051Z,6.60
2018-04-19T08:11:12.566Z,5.70
2018-04-19T08:12:14.048Z,6.00
2018-04-19T08:13:27.075Z,6.10
2018-04-19T08:14:12.302Z,5.70
2018-04-19T08:15:15.070Z,7.50
2018-04-19T08:16:36.071Z,6.10
2018-04-19T08:17:27.571Z,5.70
2018-04-19T08:18:40.570Z,6.00
2018-04-19T08:19:33.947Z,5.90
2018-04-19T08:20:13.569Z,5.90
2018-04-19T08:22:45.330Z,7.90
2018-04-19T08:23:46.336Z,9.30
2018-04-19T08:25:00.835Z,5.70
2018-04-19T08:25:45.838Z,5.90
2018-04-19T08:27:06.838Z,5.50
2018-04-19T08:27:45.845Z,5.60
2018-04-19T08:28:45.451Z,4.90
2018-04-19T08:31:17.700Z,5.70
2018-04-19T08:32:17.707Z,6.70
2018-04-19T08:33:20.208Z,4.80
2018-04-19T08:34:17.452Z,5.60
2018-04-19T08:35:17.565Z,5.40
2018-04-19T08:36:32.208Z,5.60
2018-04-19T08:37:24.708Z,5.30
2018-04-19T08:39:50.103Z,4.90
2018-04-19T08:40:50.099Z,6.40
2018-04-19T08:41:50.088Z,5.10
2018-04-19T08:42:52.590Z,5.30
2018-04-19T08:43:50.590Z,5.60
2018-04-19T08:44:50.587Z,5.30
2018-04-19T08:45:50.590Z,4.90
2018-04-19T08:46:50.198Z,5.50
2018-04-19T08:47:51.093Z,5.80
2018-04-19T08:48:51.089Z,5.30
2018-04-19T08:49:52.523Z,5.20
2018-04-19T08:50:51.118Z,5.20
2018-04-19T08:54:54.332Z,4.90
2018-04-19T08:55:54.340Z,5.50
2018-04-19T08:56:54.337Z,4.70
2018-04-19T08:59:26.088Z,5.00
2018-04-19T09:00:26.100Z,4.70
2018-04-19T09:01:26.596Z,4.80
2018-04-19T09:02:26.606Z,4.90
2018-04-19T09:03:25.960Z,4.90
2018-04-19T09:04:26.597Z,4.80
2018-04-19T09:07:20.300Z,5.40
2018-04-19T09:07:59.334Z,4.60
2018-04-19T09:08:58.368Z,4.70
2018-04-19T09:09:58.869Z,4.50
2018-04-19T09:11:19.868Z,4.60
2018-04-19T09:12:19.873Z,4.60
2018-04-19T09:12:58.870Z,4.50
2018-04-19T09:13:59.325Z,4.40
2018-04-19T09:14:58.553Z,6.10
2018-04-19T09:16:20.369Z,5.30
2018-04-19T09:16:59.372Z,5.20
2018-04-19T09:17:59.378Z,4.90
2018-04-19T09:19:26.876Z,4.30
2018-04-19T09:20:20.869Z,4.30
2018-04-19T09:21:20.206Z,5.10
2018-04-19T09:22:28.837Z,4.90
2018-04-19T09:23:21.368Z,4.40
2018-04-19T09:24:21.392Z,5.00
2018-04-19T09:25:00.370Z,5.20
2018-04-19T09:26:00.369Z,6.00
2018-04-19T09:27:00.878Z,5.20
2018-04-19T09:34:28.061Z,4.90
2018-04-19T09:35:10.489Z,4.90
2018-04-19T09:36:28.057Z,5.20
2018-04-19T09:38:38.179Z,4.80
2018-04-19T09:39:38.833Z,4.50
2018-04-19T09:40:38.468Z,5.30
2018-04-19T09:43:10.723Z,5.70
2018-04-19T09:44:10.735Z,5.40
2018-04-19T09:45:31.731Z,5.00
2018-04-19T09:46:11.230Z,7.00
2018-04-19T09:47:38.228Z,6.10
2018-04-19T09:48:25.232Z,5.50
2018-04-19T09:49:11.230Z,5.70
2018-04-19T09:50:38.730Z,6.40
2018-04-19T09:51:11.735Z,7.70
2018-04-19T09:52:11.735Z,6.00
2018-04-19T09:53:11.733Z,5.70
2018-04-19T09:55:43.490Z,5.70
2018-04-19T09:56:42.859Z,5.20
2018-04-19T09:57:45.470Z,5.10
2018-04-19T09:59:08.428Z,5.60
2018-04-19T09:59:45.996Z,5.40
2018-04-19T10:00:45.996Z,5.60
2018-04-19T10:01:44.495Z,5.50
2018-04-19T10:04:15.789Z,5.30
2018-04-19T10:05:15.806Z,5.40
2018-04-19T10:06:36.801Z,6.50
2018-04-19T10:07:15.428Z,6.40
2018-04-19T10:08:39.307Z,6.60
2018-04-19T10:09:15.653Z,5.70
2018-04-19T10:10:16.298Z,6.10
2018-04-19T10:11:39.797Z,5.60
2018-04-19T10:13:48.244Z,6.80
2018-04-19T10:14:48.247Z,6.50
2018-04-19T10:15:49.689Z,6.40
2018-04-19T10:17:08.834Z,6.30
2018-04-19T10:17:47.950Z,7.10
2018-04-19T10:18:54.752Z,6.10
2018-04-19T10:19:48.772Z,10.00
2018-04-19T10:20:48.751Z,5.90
2018-04-19T10:21:48.366Z,6.20
2018-04-19T10:22:49.252Z,6.10
2018-04-19T10:24:10.252Z,6.20
2018-04-19T10:24:49.252Z,5.90
2018-04-19T10:25:49.758Z,6.50
2018-04-19T10:26:49.750Z,6.70
2018-04-19T10:27:49.757Z,6.90
2018-04-19T10:28:49.270Z,6.80
2018-04-19T10:29:50.251Z,6.80
2018-04-19T10:30:50.253Z,6.00
2018-04-19T10:32:11.256Z,6.00
2018-04-19T10:32:51.251Z,5.70
2018-04-19T10:34:17.753Z,6.00
2018-04-19T10:34:50.837Z,6.00
2018-04-19T10:35:52.754Z,5.60
2018-04-19T10:36:50.760Z,6.60
2018-04-19T10:37:51.253Z,5.80
2018-04-19T10:39:18.254Z,5.90
2018-04-19T10:39:51.293Z,6.70
2018-04-19T10:41:05.757Z,5.60
2018-04-19T10:41:53.764Z,5.90
2018-04-19T10:42:50.991Z,6.70
2018-04-19T10:43:52.707Z,6.40
2018-04-19T10:44:52.725Z,6.30
2018-04-19T10:47:37.496Z,6.10
2018-04-19T10:48:23.944Z,6.60
2018-04-19T10:49:25.503Z,5.60
2018-04-19T10:50:38.004Z,6.30
2018-04-19T10:51:30.004Z,6.70
2018-04-19T10:52:24.011Z,7.00
2018-04-19T10:53:29.999Z,6.70
2018-04-19T10:54:26.507Z,5.70
2018-04-19T10:55:46.004Z,4.90
2018-04-19T10:56:24.505Z,5.50
2018-04-19T10:57:24.506Z,6.10
2018-04-19T10:58:27.005Z,5.30
2018-04-19T10:59:25.007Z,5.30
2018-04-19T11:00:25.005Z,6.00
2018-04-19T11:01:31.506Z,5.80
2018-04-19T11:02:27.532Z,6.20
2018-04-19T11:03:28.503Z,6.30
2018-04-19T11:04:25.516Z,6.20
2018-04-19T11:05:25.507Z,6.60
2018-04-19T11:06:56.534Z,6.40
2018-04-19T11:07:46.255Z,6.90
2018-04-19T11:08:26.018Z,6.00
2018-04-19T11:09:47.005Z,6.80
2018-04-19T11:10:46.598Z,5.60
2018-04-19T11:11:26.505Z,6.40
2018-04-19T11:12:26.507Z,6.00
2018-04-19T11:13:26.512Z,5.70
2018-04-19T11:14:27.005Z,5.80
2018-04-19T11:15:26.239Z,5.90
2018-04-19T11:16:41.007Z,5.80
2018-04-19T11:17:26.489Z,5.80
2018-04-19T11:18:48.513Z,5.80
2018-04-19T11:19:26.744Z,6.80
2018-04-19T11:20:27.509Z,5.80
2018-04-19T11:21:27.505Z,5.90
2018-04-19T11:22:27.125Z,5.90
2018-04-19T11:23:27.234Z,5.50
2018-04-19T11:24:27.348Z,5.70
2018-04-19T11:25:28.006Z,6.00
2018-04-19T11:26:27.614Z,6.20
2018-04-19T11:27:30.478Z,6.10
2018-04-19T11:28:27.839Z,5.90
2018-04-19T11:29:49.528Z,5.80
2018-04-19T11:30:28.110Z,5.80
2018-04-19T11:31:28.215Z,5.90
2018-04-19T11:32:29.004Z,6.10
2018-04-19T11:33:43.010Z,5.70
2018-04-19T11:34:49.627Z,7.80
2018-04-19T11:35:49.724Z,6.30
2018-04-19T11:36:29.520Z,5.60
2018-04-19T11:37:29.505Z,6.40
2018-04-19T11:40:01.336Z,6.50
2018-04-19T11:41:00.700Z,6.10
2018-04-19T11:43:32.267Z,6.50
2018-04-19T11:44:32.993Z,5.70
2018-04-19T11:45:53.999Z,5.90
2018-04-19T11:48:04.812Z,6.10
2018-04-19T11:49:04.801Z,5.90
2018-04-19T11:50:05.282Z,6.30
2018-04-19T11:51:11.281Z,5.70
2018-04-19T11:52:07.275Z,5.80
2018-04-19T11:53:05.292Z,5.70
2018-04-19T11:54:11.787Z,6.30
2018-04-19T11:55:05.782Z,5.70
2018-04-19T11:56:07.214Z,5.80
2018-04-19T11:57:12.294Z,6.50
2018-04-19T11:58:27.282Z,6.90
2018-04-19T11:59:06.283Z,5.60
2018-04-19T12:01:06.293Z,6.10
2018-04-19T12:02:10.267Z,5.80
2018-04-19T12:03:06.784Z,4.80
2018-04-19T12:04:12.782Z,5.00
2018-04-19T12:05:27.782Z,5.50
2018-04-19T12:06:07.279Z,5.30
2018-04-19T12:07:07.282Z,5.30
2018-04-19T12:08:07.285Z,4.80
2018-04-19T12:09:06.779Z,5.20
2018-04-19T12:10:09.715Z,4.40
2018-04-19T12:12:38.486Z,4.90
2018-04-19T12:13:39.202Z,4.80
2018-04-19T12:14:38.696Z,5.10
2018-04-19T12:15:38.811Z,4.90
2018-04-19T12:16:41.169Z,4.90
2018-04-19T12:17:41.181Z,5.00
2018-04-19T12:18:39.697Z,5.70
2018-04-19T12:19:46.203Z,5.00
2018-04-19T12:20:40.206Z,4.60
2018-04-19T12:21:40.197Z,4.80
2018-04-19T12:22:40.196Z,4.90
2018-04-19T12:25:39.019Z,4.90
2018-04-19T12:26:11.511Z,5.20
2018-04-19T12:27:26.537Z,4.70
2018-04-19T12:28:33.525Z,4.50
2018-04-19T12:29:26.522Z,4.40
2018-04-19T12:30:12.525Z,4.30
2018-04-19T12:31:12.146Z,4.10
2018-04-19T12:32:28.600Z,4.30
2018-04-19T12:33:27.025Z,5.20
2018-04-19T12:34:27.025Z,4.80
2018-04-19T12:35:34.525Z,4.60
2018-04-19T12:36:14.957Z,5.00
2018-04-19T12:37:12.967Z,5.50
2018-04-19T12:38:35.025Z,4.60
2018-04-19T12:39:20.024Z,4.50
2018-04-19T12:41:45.591Z,3.80
2018-04-19T12:44:17.144Z,4.10
2018-04-19T12:46:48.690Z,4.10
2018-04-19T12:47:48.188Z,4.10
2018-04-19T12:48:49.657Z,4.20
2018-04-19T12:49:49.196Z,4.10
2018-04-19T12:50:49.197Z,4.40
2018-04-19T12:51:49.195Z,3.50
2018-04-19T12:52:49.705Z,4.40
2018-04-19T12:53:48.946Z,3.80
2018-04-19T12:55:10.759Z,4.00
2018-04-19T12:55:50.195Z,3.70
2018-04-19T12:56:49.453Z,3.90
2018-04-19T12:57:50.342Z,3.60
2018-04-19T12:58:49.713Z,4.20
2018-04-19T12:59:49.840Z,3.20
2018-04-19T13:01:52.695Z,3.90
2018-04-19T13:02:51.199Z,4.10
2018-04-19T13:03:51.195Z,3.80
2018-04-19T13:04:51.195Z,3.70
2018-04-19T13:05:54.171Z,4.00
2018-04-19T13:06:50.667Z,3.90
2018-04-19T13:07:55.193Z,3.40
2018-04-19T13:08:57.693Z,3.60
2018-04-19T13:09:51.696Z,5.80
2018-04-19T13:10:51.196Z,5.80
2018-04-19T13:11:51.304Z,5.20
2018-04-19T13:12:52.195Z,3.40
2018-04-19T13:13:52.204Z,3.40
2018-04-19T13:15:14.201Z,3.30
2018-04-19T13:15:58.691Z,3.30
2018-04-19T13:16:51.934Z,2.80
2018-04-19T13:17:52.696Z,3.10
2018-04-19T13:19:13.199Z,3.80
2018-04-19T13:21:44.789Z,3.60
2018-04-19T13:22:24.500Z,3.70
2018-04-19T13:23:24.529Z,3.10
2018-04-19T13:24:24.162Z,3.50
2018-04-19T13:25:25.000Z,3.20
2018-04-19T13:26:24.373Z,3.30
2018-04-19T13:27:24.999Z,2.90
2018-04-19T13:29:56.801Z,3.10
2018-04-19T13:30:56.808Z,3.70
2018-04-19T13:31:57.308Z,3.30
2018-04-19T13:32:57.309Z,3.30
2018-04-19T13:33:57.312Z,2.90
2018-04-19T13:34:58.774Z,2.90
2018-04-19T13:39:00.577Z,2.90
2018-04-19T13:40:21.584Z,2.90
2018-04-19T13:41:00.586Z,3.10
2018-04-19T13:42:23.084Z,2.90
2018-04-19T13:44:53.502Z,2.90
2018-04-19T13:45:32.509Z,3.10
2018-04-19T13:46:54.009Z,3.60
2018-04-19T13:47:35.487Z,2.90
2018-04-19T13:48:54.008Z,2.90
2018-04-19T13:49:33.009Z,3.40
2018-04-19T13:50:33.509Z,3.70
2018-04-19T13:52:00.508Z,4.30
2018-04-19T13:52:33.508Z,2.70
2018-04-19T13:53:33.507Z,3.30
2018-04-19T13:54:55.056Z,3.00
2018-04-19T13:55:55.009Z,3.00
2018-04-19T13:56:34.016Z,3.20
2018-04-19T13:57:55.011Z,3.30
2018-04-19T13:58:34.503Z,2.90
2018-04-19T13:59:33.754Z,3.10
2018-04-19T14:00:55.507Z,2.70
2018-04-19T14:01:34.011Z,2.90
2018-04-19T14:02:35.022Z,3.10
2018-04-19T14:03:41.004Z,3.00
2018-04-19T14:04:35.009Z,3.30
2018-04-19T14:05:35.001Z,3.10
2018-04-19T14:08:08.292Z,3.70
2018-04-19T14:09:06.282Z,2.70
2018-04-19T14:10:13.321Z,2.90
2018-04-19T14:11:28.323Z,3.30
2018-04-19T14:12:28.322Z,3.40
2018-04-19T14:13:07.322Z,3.20
2018-04-19T14:14:13.828Z,3.30
2018-04-19T14:15:28.820Z,3.10
2018-04-19T14:17:38.687Z,3.40
2018-04-19T14:18:39.370Z,3.60
2018-04-19T14:19:39.872Z,3.30
2018-04-19T14:20:39.866Z,3.40
2018-04-19T14:22:01.863Z,2.80
2018-04-19T14:22:39.865Z,3.00
2018-04-19T14:23:42.347Z,3.00
2018-04-19T14:24:40.365Z,3.70
2018-04-19T14:25:40.368Z,3.30
2018-04-19T14:26:40.372Z,3.70
2018-04-19T14:29:33.156Z,3.30
2018-04-19T14:30:19.595Z,4.10
2018-04-19T14:31:12.198Z,3.10
2018-04-19T14:32:12.664Z,3.10
2018-04-19T14:33:33.664Z,3.30
2018-04-19T14:34:12.665Z,3.50
2018-04-19T14:35:33.663Z,3.20
2018-04-19T14:36:13.121Z,3.90
2018-04-19T14:37:13.172Z,3.20
2018-04-19T14:38:27.164Z,2.90